Time;durP1;ratioP1;P1;durP2;ratioP2;P2;SDS_P1;SDS_P2;PMS_P1;PMS_P2;Temp;Humidity;BMP_temperature;BMP_pressure;BME280_temperature;BME280_humidity;BME280_pressure;Samples;Min_cycle;Max_cycle;Signal;HPM_P1;HPM_P2
2023/01/14 00:02:25;;;;;;;0.20;0.20;;;;;;;4.29;100.00;96546.47;5061697;28;20356;-75
2023/01/14 00:05:11;;;;;;;0.20;0.20;;;;;;;4.32;100.00;96555.84;5048227;28;20373;-75
2023/01/14 00:07:57;;;;;;;0.10;0.10;;;;;;;4.29;100.00;96550.97;5050155;28;20049;-75
2023/01/14 00:10:43;;;;;;;0.13;0.13;;;;;;;4.29;100.00;96558.91;5050976;28;20160;-76
2023/01/14 00:13:29;;;;;;;0.10;0.10;;;;;;;4.29;100.00;96561.56;5050599;28;20036;-75
2023/01/14 00:16:15;;;;;;;0.15;0.15;;;;;;;4.27;100.00;96563.56;5064963;28;20032;-74
2023/01/14 00:19:01;;;;;;;0.10;0.10;;;;;;;4.22;100.00;96566.03;5049729;28;20135;-75
2023/01/14 00:21:50;;;;;;;0.20;0.20;;;;;;;4.17;100.00;96558.69;5051118;28;20636;-74
2023/01/14 00:24:36;;;;;;;0.10;0.10;;;;;;;4.25;100.00;96566.44;5063897;28;20408;-76
2023/01/14 00:27:22;;;;;;;0.20;0.20;;;;;;;4.22;100.00;96566.03;5056085;28;20045;-76
2023/01/14 00:30:10;;;;;;;0.10;0.10;;;;;;;4.24;100.00;96561.34;5046497;28;20547;-76
2023/01/14 00:32:56;;;;;;;0.20;0.20;;;;;;;4.20;100.00;96552.97;5054761;28;20048;-76
2023/01/14 00:35:41;;;;;;;0.13;0.13;;;;;;;4.20;100.00;96552.97;5055061;28;20489;-76
2023/01/14 00:38:41;;;;;;;0.20;0.20;;;;;;;4.15;100.00;96542.22;5039201;28;20348;-76
2023/01/14 00:41:27;;;;;;;0.10;0.10;;;;;;;4.09;100.00;96537.72;5051154;28;20115;-76
2023/01/14 00:44:14;;;;;;;0.10;0.10;;;;;;;4.00;100.00;96529.19;5042607;28;20432;-76
2023/01/14 00:46:59;;;;;;;0.20;0.20;;;;;;;3.98;100.00;96519.84;5054484;28;20627;-76
2023/01/14 00:49:48;;;;;;;0.20;0.20;;;;;;;3.92;100.00;96532.03;5054496;28;20875;-74
2023/01/14 00:52:33;;;;;;;0.20;0.20;;;;;;;3.91;100.00;96528.59;5052973;28;20496;-75
2023/01/14 00:55:19;;;;;;;0.20;0.20;;;;;;;3.87;100.00;96516.75;5043535;28;20052;-75
2023/01/14 00:58:05;;;;;;;0.20;0.20;;;;;;;3.79;100.00;96524.91;5054913;28;20333;-74
2023/01/14 01:00:53;;;;;;;0.20;0.20;;;;;;;3.79;100.00;96529.41;5052497;28;20069;-74
2023/01/14 01:03:41;;;;;;;0.20;0.20;;;;;;;3.68;100.00;96525.53;5039383;28;20102;-74
2023/01/14 01:06:28;;;;;;;0.20;0.20;;;;;;;3.58;100.00;96520.66;5066430;28;20372;-75
2023/01/14 01:09:14;;;;;;;0.20;0.20;;;;;;;3.46;100.00;96522.25;5052706;28;20036;-73
2023/01/14 01:12:00;;;;;;;0.20;0.20;;;;;;;3.41;100.00;96534.44;5052598;28;20036;-75
2023/01/14 01:14:47;;;;;;;0.20;0.20;;;;;;;3.19;100.00;96524.06;5054404;28;20385;-75
2023/01/14 01:17:33;;;;;;;0.20;0.20;;;;;;;3.20;100.00;96536.25;5053071;28;21324;-74
2023/01/14 01:20:19;;;;;;;0.20;0.20;;;;;;;3.16;100.00;96539.50;5064571;28;20513;-75
2023/01/14 01:23:08;;;;;;;0.28;0.28;;;;;;;3.03;100.00;96541.06;5051866;28;20566;-73
2023/01/14 01:26:04;;;;;;;0.20;0.20;;;;;;;2.98;100.00;96550.63;5051577;28;20045;-75
2023/01/14 01:28:55;;;;;;;0.20;0.20;;;;;;;3.04;100.00;96555.13;5045321;28;20441;-73
2023/01/14 01:31:41;;;;;;;0.20;0.20;;;;;;;3.06;100.00;96564.50;5050396;28;20074;-75
2023/01/14 01:34:27;;;;;;;0.20;0.20;;;;;;;3.06;100.00;96559.19;5054088;28;20359;-75
2023/01/14 01:37:12;;;;;;;0.20;0.20;;;;;;;2.98;100.00;96564.66;5035841;28;20044;-73
2023/01/14 01:40:01;;;;;;;0.17;0.17;;;;;;;2.90;100.00;96572.78;5043621;28;20464;-75
2023/01/14 01:42:55;;;;;;;0.20;0.20;;;;;;;2.85;100.00;96572.53;5054973;28;20058;-75
2023/01/14 01:45:49;;;;;;;0.20;0.20;;;;;;;3.01;100.00;96569.53;5051735;28;20575;-76
2023/01/14 01:48:42;;;;;;;0.20;0.20;;;;;;;3.31;100.00;96579.81;5043984;28;20528;-76
2023/01/14 01:51:40;;;;;;;0.20;0.20;;;;;;;3.40;100.00;96575.16;5051926;28;20492;-76
2023/01/14 01:54:30;;;;;;;0.15;0.15;;;;;;;3.39;100.00;96579.63;5052541;28;20463;-76
2023/01/14 01:57:17;;;;;;;0.20;0.20;;;;;;;3.37;100.00;96571.09;5042510;28;20501;-75
2023/01/14 02:00:09;;;;;;;0.20;0.20;;;;;;;3.37;100.00;96562.34;5046169;28;20040;-75
2023/01/14 02:03:06;;;;;;;0.13;0.13;;;;;;;3.47;100.00;96565.41;5048338;28;20239;-76
2023/01/14 02:05:53;;;;;;;0.17;0.17;;;;;;;3.34;100.00;96571.47;5050802;28;20496;-75
2023/01/14 02:08:41;;;;;;;0.20;0.20;;;;;;;3.33;100.00;96583.06;5051084;28;20363;-76
2023/01/14 02:12:05;;;;;;;0.20;0.20;;;;;;;3.27;100.00;96584.69;5064395;28;20109;-76
2023/01/14 02:15:01;;;;;;;0.20;0.20;;;;;;;3.46;100.00;96592.88;5046905;28;20158;-75
2023/01/14 02:18:05;;;;;;;0.20;0.20;;;;;;;3.55;100.00;96578.44;5066037;28;20715;-75
2023/01/14 02:21:00;;;;;;;0.20;0.20;;;;;;;3.60;100.00;96587.41;5042151;28;20412;-75
2023/01/14 02:24:25;;;;;;;0.15;0.15;;;;;;;3.63;100.00;96584.34;5066966;28;20050;-75
2023/01/14 02:27:31;;;;;;;0.20;0.20;;;;;;;3.67;100.00;96579.50;5040425;28;20052;-74
2023/01/14 02:30:49;;;;;;;0.20;0.20;;;;;;;3.68;100.00;96582.94;5064532;28;20836;-75
2023/01/14 02:33:47;;;;;;;0.20;0.20;;;;;;;3.62;100.00;96582.72;5045800;28;20043;-73
2023/01/14 02:36:48;;;;;;;0.20;0.20;;;;;;;3.57;100.00;96581.69;5039007;28;20037;-74
2023/01/14 02:39:44;;;;;;;0.20;0.20;;;;;;;3.51;100.00;96583.34;5053742;28;20127;-75
2023/01/14 02:45:57;;;;;;;0.20;0.20;;;;;;;3.54;100.00;96584.75;5063571;28;20526;-76
2023/01/14 02:48:45;;;;;;;0.20;0.20;;;;;;;3.57;100.00;96579.84;5034253;28;20116;-75
2023/01/14 02:51:32;;;;;;;0.20;0.20;;;;;;;3.55;100.00;96575.78;5050312;28;20039;-73
2023/01/14 02:54:18;;;;;;;0.20;0.20;;;;;;;3.51;100.00;96570.09;5043956;28;20443;-73
2023/01/14 02:57:22;;;;;;;0.20;0.20;;;;;;;3.53;100.00;96573.34;5066463;28;20044;-75
2023/01/14 03:00:19;;;;;;;0.20;0.20;;;;;;;3.47;100.00;96566.22;5065895;28;20047;-75
2023/01/14 03:03:26;;;;;;;0.20;0.20;;;;;;;3.24;100.00;96568.41;5051981;28;20444;-74
2023/01/14 03:06:34;;;;;;;0.15;0.15;;;;;;;3.12;100.00;96577.94;5045793;28;20083;-74
2023/01/14 03:09:40;;;;;;;0.20;0.20;;;;;;;3.05;100.00;96578.72;5050524;28;20565;-75
2023/01/14 03:12:35;;;;;;;0.20;0.20;;;;;;;3.15;100.00;96574.88;5049797;28;20044;-73
2023/01/14 03:15:29;;;;;;;0.13;0.13;;;;;;;3.19;100.00;96574.31;5063273;28;20529;-75
2023/01/14 03:18:26;;;;;;;0.28;0.28;;;;;;;3.08;100.00;96559.81;5038091;28;20045;-74
2023/01/14 03:21:27;;;;;;;0.20;0.20;;;;;;;3.02;100.00;96547.38;5065203;28;20386;-74
2023/01/14 03:24:16;;;;;;;0.15;0.15;;;;;;;2.96;100.00;96542.09;5051828;28;20037;-74
2023/01/14 03:27:10;;;;;;;0.20;0.20;;;;;;;2.98;100.00;96527.66;5064060;28;20333;-75
2023/01/14 03:30:10;;;;;;;0.20;0.20;;;;;;;2.86;100.00;96534.50;5037169;28;20153;-75
2023/01/14 03:33:04;;;;;;;0.20;0.20;;;;;;;2.70;100.00;96519.00;5050210;28;20071;-75
2023/01/14 03:35:52;;;;;;;0.30;0.30;;;;;;;2.78;100.00;96518.84;5036610;28;20151;-74
2023/01/14 03:38:46;;;;;;;0.20;0.20;;;;;;;2.69;100.00;96514.75;5051098;28;20083;-75
2023/01/14 03:44:48;;;;;;;0.10;0.10;;;;;;;2.70;100.00;96506.59;5049598;28;20036;-75
2023/01/14 03:47:36;;;;;;;0.20;0.20;;;;;;;2.95;100.00;96496.31;5053067;28;20071;-75
2023/01/14 03:50:28;;;;;;;0.17;0.17;;;;;;;3.01;100.00;96502.63;5061913;28;20131;-76
2023/01/14 03:53:27;;;;;;;0.20;0.20;;;;;;;3.02;100.00;96498.97;5036305;28;20264;-76
2023/01/14 03:56:42;;;;;;;0.10;0.10;;;;;;;3.03;100.00;96508.53;5050762;28;20040;-76
2023/01/14 03:59:45;;;;;;;0.20;0.20;;;;;;;3.08;100.00;96504.28;5050645;28;20425;-76
2023/01/14 04:02:32;;;;;;;0.20;0.20;;;;;;;3.12;100.00;96501.25;5052530;28;20380;-75
2023/01/14 04:05:18;;;;;;;0.20;0.20;;;;;;;3.08;100.00;96509.56;5050930;28;20381;-75
2023/01/14 04:08:06;;;;;;;0.17;0.17;;;;;;;3.08;100.00;96506.94;5051535;28;20041;-74
2023/01/14 04:10:52;;;;;;;0.20;0.20;;;;;;;3.07;100.00;96492.09;5050658;28;20245;-74
2023/01/14 04:16:43;;;;;;;0.20;0.20;;;;;;;3.03;100.00;96488.19;5050559;28;20074;-76
2023/01/14 04:19:29;;;;;;;0.10;0.10;;;;;;;3.07;100.00;96478.88;5052894;28;20109;-76
2023/01/14 04:22:15;;;;;;;0.20;0.20;;;;;;;2.95;100.00;96491.03;5052505;28;20400;-74
2023/01/14 04:25:01;;;;;;;0.20;0.20;;;;;;;2.87;100.00;96479.81;5048039;28;20037;-75
2023/01/14 04:27:47;;;;;;;0.20;0.20;;;;;;;2.88;100.00;96479.66;5053095;28;20110;-75
2023/01/14 04:30:33;;;;;;;0.20;0.20;;;;;;;2.96;100.00;96486.59;5032035;28;20548;-74
2023/01/14 04:33:19;;;;;;;0.10;0.10;;;;;;;2.86;100.00;96505.44;5051170;28;20040;-76
2023/01/14 04:36:06;;;;;;;0.20;0.20;;;;;;;2.84;100.00;96504.03;5048631;28;20054;-76
2023/01/14 04:38:51;;;;;;;0.20;0.20;;;;;;;2.84;100.00;96509.31;5051155;28;20273;-75
2023/01/14 04:44:44;;;;;;;0.20;0.20;;;;;;;2.75;100.00;96495.47;5049839;28;20037;-76
2023/01/14 04:47:31;;;;;;;0.20;0.20;;;;;;;2.77;100.00;96478.38;5050499;28;20037;-74
2023/01/14 04:50:32;;;;;;;0.20;0.20;;;;;;;2.76;100.00;96475.94;5049740;28;20285;-76
2023/01/14 04:53:23;;;;;;;0.28;0.28;;;;;;;2.73;100.00;96473.72;5051910;28;20520;-74
2023/01/14 04:56:09;;;;;;;0.30;0.30;;;;;;;2.76;100.00;96468.00;5050350;28;20093;-76
2023/01/14 04:58:57;;;;;;;0.20;0.20;;;;;;;2.76;100.00;96465.38;5049886;28;20102;-74
2023/01/14 05:01:43;;;;;;;0.20;0.20;;;;;;;2.74;100.00;96476.16;5051167;28;20163;-76
2023/01/14 05:04:32;;;;;;;0.20;0.20;;;;;;;2.74;100.00;96467.41;5051360;28;20664;-75
2023/01/14 05:07:18;;;;;;;0.20;0.20;;;;;;;2.77;100.00;96462.53;5053621;28;20058;-74
2023/01/14 05:10:05;;;;;;;0.17;0.17;;;;;;;2.80;100.00;96466.59;5051381;28;20609;-75
2023/01/14 05:12:57;;;;;;;0.20;0.20;;;;;;;2.83;100.00;96462.75;5056120;28;20063;-74
2023/01/14 05:15:44;;;;;;;0.20;0.20;;;;;;;2.83;100.00;96460.91;5052440;28;20080;-76
2023/01/14 05:18:30;;;;;;;0.20;0.20;;;;;;;2.84;100.00;96461.72;5068949;28;20048;-76
2023/01/14 05:21:17;;;;;;;0.20;0.20;;;;;;;2.86;100.00;96457.88;5056653;28;20059;-75
2023/01/14 05:24:04;;;;;;;0.20;0.20;;;;;;;2.87;100.00;96451.56;5056098;28;20049;-76
2023/01/14 05:26:50;;;;;;;0.20;0.20;;;;;;;2.95;100.00;96443.44;5054362;28;20486;-76
2023/01/14 05:29:38;;;;;;;0.15;0.15;;;;;;;2.91;100.00;96436.94;5055311;28;20201;-76
2023/01/14 05:32:23;;;;;;;0.20;0.20;;;;;;;2.98;100.00;96435.13;5056352;28;20563;-76
2023/01/14 05:35:12;;;;;;;0.20;0.20;;;;;;;2.98;100.00;96440.41;5056137;28;20051;-75
2023/01/14 05:37:58;;;;;;;0.20;0.20;;;;;;;2.98;100.00;96432.47;5055798;28;20051;-74
2023/01/14 05:40:44;;;;;;;0.20;0.20;;;;;;;2.98;100.00;96426.38;5053441;28;20448;-75
2023/01/14 05:46:34;;;;;;;0.20;0.20;;;;;;;2.99;100.00;96412.97;5053737;28;20205;-75
2023/01/14 05:49:20;;;;;;;0.20;0.20;;;;;;;2.99;100.00;96412.16;5051502;28;20264;-75
2023/01/14 05:52:06;;;;;;;0.10;0.10;;;;;;;2.98;100.00;96416.63;5054144;28;20039;-74
2023/01/14 05:54:51;;;;;;;0.22;0.22;;;;;;;3.01;100.00;96404.81;5053188;28;20551;-73
2023/01/14 05:57:37;;;;;;;0.20;0.20;;;;;;;2.98;100.00;96398.13;5056417;28;20046;-74
2023/01/14 06:06:49;;;;;;;0.20;0.20;;;;;;;2.93;100.00;96395.25;5054715;28;20032;-74
2023/01/14 06:09:34;;;;;;;0.20;0.20;;;;;;;2.90;100.00;96395.66;5052670;28;20047;-74
2023/01/14 06:12:36;;;;;;;0.20;0.20;;;;;;;2.93;100.00;96397.09;5054986;28;20576;-75
2023/01/14 06:15:22;;;;;;;0.20;0.20;;;;;;;2.99;100.00;96386.53;5052889;28;20780;-77
2023/01/14 06:18:14;;;;;;;0.20;0.20;;;;;;;3.05;100.00;96388.38;5057189;28;20125;-76
2023/01/14 06:21:00;;;;;;;0.10;0.10;;;;;;;3.16;100.00;96386.94;5038116;28;20077;-77
2023/01/14 06:23:47;;;;;;;0.20;0.20;;;;;;;3.19;100.00;96381.25;5051581;28;20037;-77
2023/01/14 06:26:35;;;;;;;0.10;0.10;;;;;;;3.17;100.00;96379.81;5053045;28;20944;-75
2023/01/14 06:29:21;;;;;;;0.10;0.10;;;;;;;3.18;100.00;96365.56;5053484;28;20484;-76
2023/01/14 06:32:06;;;;;;;0.20;0.20;;;;;;;3.12;100.00;96361.13;5056046;28;20105;-76
2023/01/14 06:34:52;;;;;;;0.15;0.15;;;;;;;3.18;100.00;96365.56;5041616;28;20057;-76
2023/01/14 06:37:38;;;;;;;0.10;0.10;;;;;;;3.14;100.00;96361.72;5053892;28;20054;-76
2023/01/14 06:40:24;;;;;;;0.20;0.20;;;;;;;3.11;100.00;96357.63;5040226;28;20266;-74
2023/01/14 06:43:10;;;;;;;0.20;0.20;;;;;;;3.10;100.00;96347.25;5054250;28;20054;-75
2023/01/14 06:45:57;;;;;;;0.25;0.20;;;;;;;3.04;100.00;96340.97;5051101;28;20178;-74
2023/01/14 06:48:44;;;;;;;0.20;0.20;;;;;;;2.92;100.00;96343.41;5055688;28;20486;-76
2023/01/14 06:51:32;;;;;;;0.30;0.30;;;;;;;2.89;100.00;96348.31;5036256;28;20064;-76
2023/01/14 06:54:17;;;;;;;0.20;0.20;;;;;;;2.90;100.00;96344.63;5053695;28;20046;-76
2023/01/14 06:57:04;;;;;;;0.10;0.10;;;;;;;2.88;100.00;96331.63;5039689;28;20062;-76
2023/01/14 06:59:50;;;;;;;0.20;0.20;;;;;;;2.89;100.00;96324.50;5044041;28;20056;-76
2023/01/14 07:02:36;;;;;;;0.17;0.17;;;;;;;2.89;100.00;96317.41;5055434;28;20040;-77
2023/01/14 07:05:22;;;;;;;0.20;0.20;;;;;;;2.95;100.00;96310.47;5053840;28;20767;-76
2023/01/14 07:08:08;;;;;;;0.10;0.10;;;;;;;2.93;100.00;96310.66;5054700;28;20036;-75
2023/01/14 07:10:54;;;;;;;0.20;0.20;;;;;;;2.94;100.00;96295.63;5049107;28;20298;-76
2023/01/14 07:13:40;;;;;;;0.10;0.10;;;;;;;2.92;100.00;96309.03;5039885;28;20043;-76
2023/01/14 07:16:26;;;;;;;0.20;0.20;;;;;;;2.91;100.00;96286.28;5053324;28;20533;-76
2023/01/14 07:19:12;;;;;;;0.20;0.20;;;;;;;2.85;100.00;96286.28;5055355;28;20480;-76
2023/01/14 07:21:58;;;;;;;0.10;0.10;;;;;;;2.74;100.00;96285.06;5050832;28;20055;-76
2023/01/14 07:24:43;;;;;;;0.10;0.10;;;;;;;2.78;100.00;96278.34;5053848;28;20402;-77
2023/01/14 07:27:30;;;;;;;0.20;0.20;;;;;;;2.76;100.00;96281.19;5052871;28;20178;-76
2023/01/14 07:30:16;;;;;;;0.20;0.20;;;;;;;2.76;100.00;96269.81;5052812;28;20043;-76
2023/01/14 07:33:04;;;;;;;0.20;0.20;;;;;;;2.82;100.00;96266.38;5054036;28;20255;-75
2023/01/14 07:35:53;;;;;;;0.20;0.20;;;;;;;2.82;100.00;96255.78;5064598;28;20036;-77
2023/01/14 07:38:39;;;;;;;0.20;0.20;;;;;;;2.76;100.00;96253.97;5057160;28;20036;-75
2023/01/14 07:41:25;;;;;;;0.20;0.20;;;;;;;2.79;100.00;96264.94;5053479;28;20105;-76
2023/01/14 07:44:11;;;;;;;0.20;0.20;;;;;;;2.84;100.00;96253.75;5054297;28;20039;-75
2023/01/14 07:46:57;;;;;;;0.20;0.20;;;;;;;2.91;100.00;96251.91;5055398;28;20044;-75
2023/01/14 07:49:43;;;;;;;0.20;0.20;;;;;;;2.98;100.00;96246.63;5051735;28;20064;-77
2023/01/14 07:52:29;;;;;;;0.20;0.20;;;;;;;3.03;100.00;96239.69;5054498;28;20814;-76
2023/01/14 07:55:15;;;;;;;0.20;0.20;;;;;;;3.00;100.00;96239.28;5055170;28;20150;-77
2023/01/14 07:58:01;;;;;;;0.13;0.13;;;;;;;2.99;100.00;96230.56;5053876;28;20230;-76
2023/01/14 08:00:47;;;;;;;0.20;0.20;;;;;;;3.07;100.00;96235.63;5032450;28;20247;-77
2023/01/14 08:03:33;;;;;;;0.20;0.20;;;;;;;3.15;100.00;96239.06;5035786;28;20037;-76
2023/01/14 08:06:19;;;;;;;0.20;0.20;;;;;;;3.20;100.00;96234.78;5026558;28;20393;-76
2023/01/14 08:09:04;;;;;;;0.20;0.20;;;;;;;3.16;100.00;96230.09;5033905;28;20590;-75
2023/01/14 08:11:50;;;;;;;0.13;0.13;;;;;;;3.12;100.00;96215.69;5032815;28;20434;-76
2023/01/14 08:14:36;;;;;;;0.20;0.20;;;;;;;3.24;100.00;96214.03;5033901;28;20443;-76
2023/01/14 08:17:22;;;;;;;0.20;0.20;;;;;;;3.23;100.00;96213.22;5033354;28;20242;-76
2023/01/14 08:20:09;;;;;;;0.20;0.20;;;;;;;3.19;100.00;96213.81;5029490;28;20060;-76
2023/01/14 08:22:57;;;;;;;0.10;0.10;;;;;;;3.22;100.00;96203.66;5023759;28;20337;-76
2023/01/14 08:25:43;;;;;;;0.25;0.25;;;;;;;3.23;100.00;96197.34;5033253;28;20217;-77
2023/01/14 08:28:30;;;;;;;0.20;0.20;;;;;;;3.24;100.00;96198.16;5035271;28;20037;-76
2023/01/14 08:31:16;;;;;;;0.20;0.20;;;;;;;3.15;100.00;96197.56;5019800;28;20048;-76
2023/01/14 08:34:02;;;;;;;0.10;0.10;;;;;;;3.16;100.00;96188.63;5021694;28;20079;-76
2023/01/14 08:36:49;;;;;;;0.20;0.20;;;;;;;3.11;100.00;96161.16;5032529;28;20041;-76
2023/01/14 08:39:35;;;;;;;0.10;0.10;;;;;;;3.12;100.00;96146.94;5034967;28;20106;-76
2023/01/14 08:42:20;;;;;;;0.20;0.20;;;;;;;3.08;100.00;96152.63;5034849;28;20067;-75
2023/01/14 08:45:07;;;;;;;0.20;0.20;;;;;;;3.04;100.00;96169.94;5033471;28;20566;-76
2023/01/14 08:47:53;;;;;;;0.20;0.20;;;;;;;3.04;100.00;96166.50;5034951;28;20040;-75
2023/01/14 08:50:39;;;;;;;0.20;0.20;;;;;;;3.16;100.00;96169.28;5040287;28;20052;-76
2023/01/14 08:53:24;;;;;;;0.20;0.20;;;;;;;3.08;100.00;96150.00;5037235;28;20036;-76
2023/01/14 08:56:15;;;;;;;0.20;0.20;;;;;;;3.10;100.00;96152.44;5038505;28;20415;-76
2023/01/14 08:59:02;;;;;;;0.20;0.20;;;;;;;3.11;100.00;96146.09;5045631;28;20051;-75
2023/01/14 09:01:48;;;;;;;0.20;0.20;;;;;;;3.25;100.00;96146.88;5054195;28;20116;-76
2023/01/14 09:04:34;;;;;;;0.20;0.20;;;;;;;3.29;100.00;96132.22;5056559;28;20044;-75
2023/01/14 09:19:49;;;;;;;0.20;0.20;;;;;;;3.30;100.00;96091.53;5056070;28;20051;-76
2023/01/14 09:22:35;;;;;;;0.20;0.20;;;;;;;3.30;100.00;96095.00;5042012;28;20133;-75
2023/01/14 09:25:21;;;;;;;0.20;0.20;;;;;;;3.34;100.00;96082.13;5055736;28;20047;-75
2023/01/14 09:28:07;;;;;;;0.20;0.20;;;;;;;3.43;100.00;96088.03;5058797;28;20531;-77
2023/01/14 09:30:53;;;;;;;0.20;0.20;;;;;;;3.34;100.00;96077.66;5055315;28;20326;-76
2023/01/14 09:33:41;;;;;;;0.20;0.20;;;;;;;3.41;100.00;96068.88;5055650;28;20280;-76
2023/01/14 09:36:29;;;;;;;0.13;0.13;;;;;;;3.42;100.00;96066.00;5056421;28;20765;-76
2023/01/14 09:39:15;;;;;;;0.20;0.20;;;;;;;3.51;100.00;96059.47;5055441;28;20040;-76
2023/01/14 09:42:08;;;;;;;0.20;0.20;;;;;;;3.59;100.00;96076.94;5055347;28;20511;-76
2023/01/14 09:45:20;;;;;;;0.20;0.20;;;;;;;3.61;100.00;96073.03;5054704;28;20048;-76
2023/01/14 09:48:14;;;;;;;0.10;0.10;;;;;;;3.66;100.00;96066.28;5056297;28;20970;-76
2023/01/14 09:51:36;;;;;;;0.20;0.20;;;;;;;3.76;100.00;96058.69;5053512;28;20044;-77
2023/01/14 09:54:27;;;;;;;0.10;0.10;;;;;;;3.68;100.00;96057.13;5042686;28;20044;-76
2023/01/14 09:58:01;;;;;;;0.20;0.20;;;;;;;3.79;100.00;96063.53;5055608;28;20350;-76
2023/01/14 10:01:06;;;;;;;0.20;0.20;;;;;;;3.70;100.00;96052.41;5051289;28;20052;-77
2023/01/14 10:04:26;;;;;;;0.20;0.20;;;;;;;3.69;100.00;96047.34;5056995;28;20448;-77
2023/01/14 10:07:13;;;;;;;0.20;0.20;;;;;;;3.76;100.00;96053.41;5043170;28;20139;-76
2023/01/14 10:10:01;;;;;;;0.20;0.20;;;;;;;3.77;100.00;96052.38;5038651;28;20078;-77
2023/01/14 10:12:48;;;;;;;0.13;0.13;;;;;;;3.77;100.00;96050.53;5056184;28;20440;-77
2023/01/14 10:15:40;;;;;;;0.13;0.13;;;;;;;3.78;100.00;96044.19;5054378;28;21823;-77
2023/01/14 10:18:28;;;;;;;0.20;0.20;;;;;;;3.71;100.00;96027.56;5049307;28;20079;-76
2023/01/14 10:21:39;;;;;;;0.20;0.20;;;;;;;3.73;100.00;96024.69;5053376;28;20374;-76
2023/01/14 10:24:25;;;;;;;0.20;0.20;;;;;;;3.77;100.00;96016.13;5056437;28;20043;-76
2023/01/14 10:27:17;;;;;;;0.20;0.20;;;;;;;3.77;100.00;96008.19;5039903;28;20044;-78
2023/01/14 10:30:20;;;;;;;0.20;0.20;;;;;;;3.79;100.00;95995.53;5052711;28;20040;-76
2023/01/14 10:33:12;;;;;;;0.20;0.20;;;;;;;3.82;100.00;95981.06;5053737;28;20062;-76
2023/01/14 10:36:03;;;;;;;0.20;0.20;;;;;;;3.94;100.00;95981.16;5039779;28;20158;-76
2023/01/14 10:38:50;;;;;;;0.20;0.20;;;;;;;3.90;100.00;95956.97;5053028;28;20654;-76
2023/01/14 10:41:48;;;;;;;0.20;0.20;;;;;;;3.87;100.00;95960.03;5054381;28;20076;-76
2023/01/14 10:44:37;;;;;;;0.20;0.20;;;;;;;3.92;100.00;95944.31;5042222;28;20032;-76
2023/01/14 10:47:24;;;;;;;0.20;0.20;;;;;;;3.87;100.00;95934.38;5055078;28;20040;-77
2023/01/14 10:50:27;;;;;;;0.10;0.10;;;;;;;3.98;100.00;95916.16;5052210;28;20044;-77
2023/01/14 10:53:24;;;;;;;0.20;0.20;;;;;;;4.01;100.00;95903.28;5050680;28;20505;-77
2023/01/14 10:56:10;;;;;;;0.10;0.10;;;;;;;4.05;100.00;95901.81;5041282;28;20410;-77
2023/01/14 10:58:56;;;;;;;0.17;0.17;;;;;;;4.01;100.00;95891.88;5051908;28;20447;-76
2023/01/14 11:01:42;;;;;;;0.20;0.20;;;;;;;4.09;100.00;95884.44;5052996;28;20040;-77
2023/01/14 11:04:32;;;;;;;0.20;0.20;;;;;;;4.11;100.00;95863.03;5054655;28;21030;-76
2023/01/14 11:07:28;;;;;;;0.20;0.20;;;;;;;4.02;100.00;95851.94;5053316;28;20229;-76
2023/01/14 11:10:29;;;;;;;0.20;0.20;;;;;;;3.99;100.00;95831.22;5053925;28;20055;-77
2023/01/14 11:13:23;;;;;;;0.20;0.20;;;;;;;4.06;100.00;95847.84;5046927;28;20040;-77
2023/01/14 11:16:21;;;;;;;0.10;0.10;;;;;;;4.04;100.00;95841.13;5046683;28;20278;-77
2023/01/14 11:19:16;;;;;;;0.10;0.10;;;;;;;4.07;100.00;95830.13;5054942;28;22029;-75
2023/01/14 11:22:04;;;;;;;0.10;0.10;;;;;;;4.07;100.00;95822.97;5051887;28;20593;-76
2023/01/14 11:24:54;;;;;;;0.20;0.20;;;;;;;4.10;100.00;95811.94;5053265;28;20671;-76
2023/01/14 11:27:46;;;;;;;0.20;0.20;;;;;;;4.05;100.00;95787.97;5058538;28;20060;-75
2023/01/14 11:30:33;;;;;;;0.13;0.13;;;;;;;4.17;100.00;95819.78;5052437;28;20150;-76
2023/01/14 11:33:21;;;;;;;0.20;0.20;;;;;;;4.29;100.00;95809.25;5053451;28;20040;-76
2023/01/14 11:36:10;;;;;;;0.15;0.15;;;;;;;4.32;100.00;95795.56;5040206;28;20048;-76
2023/01/14 11:38:58;;;;;;;0.20;0.20;;;;;;;4.33;100.00;95786.56;5051020;28;20049;-76
2023/01/14 11:41:44;;;;;;;0.10;0.10;;;;;;;4.33;100.00;95770.69;5052275;28;20061;-76
2023/01/14 11:44:31;;;;;;;0.20;0.20;;;;;;;4.28;100.00;95755.47;5052258;28;20040;-76
2023/01/14 11:47:19;;;;;;;0.20;0.20;;;;;;;4.34;100.00;95754.56;5054244;28;20044;-76
2023/01/14 11:50:32;;;;;;;0.20;0.20;;;;;;;4.34;100.00;95751.09;5049097;28;20479;-77
2023/01/14 11:53:19;;;;;;;0.20;0.20;;;;;;;4.29;100.00;95737.75;5051488;28;20043;-75
2023/01/14 11:56:05;;;;;;;0.10;0.10;;;;;;;4.41;100.00;95739.38;5051344;28;20979;-77
2023/01/14 11:58:51;;;;;;;0.20;0.20;;;;;;;4.36;100.00;95738.47;5029171;28;20365;-77
2023/01/14 12:01:42;;;;;;;0.20;0.20;;;;;;;4.30;100.00;95729.56;5030087;28;20045;-76
2023/01/14 12:04:39;;;;;;;0.20;0.20;;;;;;;4.34;100.00;95727.25;5034348;28;20044;-76
2023/01/14 12:07:31;;;;;;;0.20;0.20;;;;;;;4.44;100.00;95709.78;5030708;28;20041;-77
2023/01/14 12:10:21;;;;;;;0.20;0.20;;;;;;;4.48;100.00;95707.47;5030606;28;20045;-76
2023/01/14 12:16:52;;;;;;;0.15;0.15;;;;;;;4.53;100.00;95691.72;5032602;28;20047;-76
2023/01/14 12:19:41;;;;;;;0.20;0.20;;;;;;;4.53;100.00;95673.16;5019550;28;20317;-77
2023/01/14 12:22:32;;;;;;;0.20;0.20;;;;;;;4.47;100.00;95671.44;5047726;28;20122;-77
2023/01/14 12:25:49;;;;;;;0.20;0.20;;;;;;;4.65;100.00;95665.22;5037199;28;20669;-76
2023/01/14 12:28:41;;;;;;;0.10;0.10;;;;;;;4.69;100.00;95666.38;5048788;28;20051;-76
2023/01/14 12:31:40;;;;;;;0.20;0.20;;;;;;;4.68;100.00;95654.97;5023084;28;20044;-76
2023/01/14 12:34:40;;;;;;;0.20;0.20;;;;;;;4.82;100.00;95663.47;5035942;28;20044;-76
2023/01/14 12:37:46;;;;;;;0.20;0.20;;;;;;;4.87;100.00;95630.97;5036132;28;20454;-76
2023/01/14 12:46:55;;;;;;;0.13;0.13;;;;;;;5.09;100.00;95633.84;5034625;28;20045;-76
2023/01/14 12:49:43;;;;;;;0.20;0.20;;;;;;;5.22;100.00;95628.28;5036117;28;20775;-77
2023/01/14 12:52:33;;;;;;;0.10;0.10;;;;;;;5.23;100.00;95630.69;5033996;28;20136;-76
2023/01/14 12:55:31;;;;;;;0.20;0.20;;;;;;;5.20;100.00;95635.66;5036177;28;20137;-76
2023/01/14 12:58:25;;;;;;;0.20;0.20;;;;;;;5.21;100.00;95618.69;5039124;28;20041;-77
2023/01/14 13:01:12;;;;;;;0.20;0.20;;;;;;;5.31;100.00;95611.75;5040676;28;20056;-77
2023/01/14 13:04:05;;;;;;;0.20;0.20;;;;;;;5.31;100.00;95609.09;5054155;28;20614;-75
2023/01/14 13:06:59;;;;;;;0.10;0.10;;;;;;;5.29;100.00;95592.63;5067793;28;20071;-77
2023/01/14 13:09:49;;;;;;;0.10;0.10;;;;;;;5.36;100.00;95581.03;5054899;28;20238;-76
2023/01/14 13:12:39;;;;;;;0.10;0.10;;;;;;;5.28;100.00;95577.72;5056902;28;20063;-76
2023/01/14 13:15:31;;;;;;;0.17;0.17;;;;;;;5.30;100.00;95564.25;5056065;28;20048;-77
2023/01/14 13:18:35;;;;;;;;;;;;;;;5.30;100.00;95562.41;5058921;28;20036;-76
2023/01/14 13:21:59;;;;;;;0.20;0.20;;;;;;;5.29;100.00;95562.59;5056583;28;20055;-76
2023/01/14 13:24:46;;;;;;;0.20;0.20;;;;;;;5.32;100.00;95532.97;5056770;28;20102;-77
2023/01/14 13:27:37;;;;;;;0.17;0.17;;;;;;;5.38;100.00;95521.41;5059152;28;20044;-77
2023/01/14 13:30:23;;;;;;;0.10;0.10;;;;;;;5.35;100.00;95516.56;5067930;28;20068;-77
2023/01/14 13:33:19;;;;;;;0.20;0.20;;;;;;;5.49;100.00;95509.13;5054976;28;20041;-76
2023/01/14 13:36:11;;;;;;;0.20;0.20;;;;;;;5.55;100.00;95508.97;5065831;28;20044;-76
2023/01/14 13:39:03;;;;;;;0.17;0.17;;;;;;;5.51;100.00;95489.25;5051675;28;20129;-76
2023/01/14 13:41:52;;;;;;;0.20;0.20;;;;;;;5.53;100.00;95486.38;5053663;28;20562;-76
2023/01/14 13:44:48;;;;;;;0.17;0.17;;;;;;;5.62;100.00;95479.63;5053247;28;20520;-76
2023/01/14 13:47:37;;;;;;;0.20;0.20;;;;;;;5.70;100.00;95475.78;5052796;28;20048;-76
2023/01/14 13:50:32;;;;;;;0.10;0.10;;;;;;;5.64;100.00;95463.47;5053673;28;20358;-76
2023/01/14 13:53:17;;;;;;;0.20;0.20;;;;;;;5.59;100.00;95448.25;5068875;28;20047;-77
2023/01/14 13:56:03;;;;;;;0.17;0.17;;;;;;;5.66;100.00;95456.06;5050312;28;20074;-77
2023/01/14 13:58:55;;;;;;;0.10;0.10;;;;;;;5.72;100.00;95450.59;5053116;28;20044;-77
2023/01/14 14:01:41;;;;;;;;;;;;;;;5.83;100.00;95448.88;5055072;28;20105;-77
2023/01/14 14:04:55;;;;;;;0.15;0.15;;;;;;;5.80;100.00;95455.50;5054998;28;19943;-77
2023/01/14 14:07:41;;;;;;;0.10;0.10;;;;;;;5.77;100.00;95469.25;5053472;28;20047;-76
2023/01/14 14:11:05;;;;;;;0.20;0.20;;;;;;;5.82;100.00;95453.38;5053633;28;20051;-77